LESO Airport Information

Runway Information
Runway 04 Length 4780 ft width 148 ft
Elevation 10 ft Threshold ft Heading 39
Runway 22 Length 4780 ft Width 148 ft
Elevation 15 ft Threshold ft Heading 219
Airport Frequencies
Type TWR Name SAN SEBAST Frequency 119.85 MHZ
Airport Navaids
Type NDB-DME Name San Sebastian Frequency 328 KHZ
Type VOR-DME Name San Sebastian Frequency 117900 KHZ
Airport Weather Information & NOTAM
ADDS - METARS form results

(0547 UTC 03 December 2022)
Data provider http://aviationweather.gov/metar/data/
 
METAR text: LESO 030530Z 08006KT 040V110 4800 RA BKN010 OVC030 06/05 Q1010
Conditions at: LESO (SAN SEBASTIAN/FU, ES) observed 0530 UTC 03 December 2022
Temperature: 6.0°C (43°F)
Dewpoint: 5.0°C (41°F) [RH = 93%]
Pressure (altimeter): 29.82 inches Hg (1010.0 mb)
Winds: from the E (80 degrees) at 7 MPH (6 knots; 3.1 m/s)
Visibility: 2.98 miles (4.80 km)
Ceiling: 1000 feet AGL
Clouds: broken clouds at 1000 feet AGL
overcast cloud deck at 3000 feet AGL
Weather: RA  (moderate rain)

METAR text: LESO 030500Z 08009KT 050V110 4800 RA BKN009 OVC030 06/05 Q1010
Conditions at: LESO (SAN SEBASTIAN/FU, ES) observed 0500 UTC 03 December 2022
Temperature: 6.0°C (43°F)
Dewpoint: 5.0°C (41°F) [RH = 93%]
Pressure (altimeter): 29.82 inches Hg (1010.0 mb)
Winds: from the E (80 degrees) at 10 MPH (9 knots; 4.6 m/s)
Visibility: 2.98 miles (4.80 km)
Ceiling: 900 feet AGL
Clouds: broken clouds at 900 feet AGL
overcast cloud deck at 3000 feet AGL
Weather: RA  (moderate rain)

Forecast for: LESO (SAN SEBASTIAN/FU, ES)
Text: TAF LESO 030500Z 0306/0406 06008KT 9999 BKN040 TX07/0315Z TN04/0402Z
Forecast period: 0600 UTC 03 December 2022 to 0600 UTC 04 December 2022
Forecast type: FROM: standard forecast or significant change
Winds: from the ENE (60 degrees) at 9 MPH (8 knots; 4.1 m/s)
Visibility: 6 or more miles (10+ km)
Ceiling: 4000 feet AGL
Clouds: broken clouds at 4000 feet AGL
Weather: no significant weather forecast for this period
Text: PROB40
Forecast period: 0600 UTC 03 December 2022 to 0000 UTC 04 December 2022
Forecast type: TEMPORARY: The following changes expected for less than half the time period
Visibility: 1.86 miles (2.99 km)
Ceiling: 1000 feet AGL
Clouds: broken clouds at 1000 feet AGL
Weather: RA  (moderate rain)
Text: TEMPO 0306/0324 3000 RA BKN010
Forecast period: 0200 to 0600 UTC 04 December 2022
Forecast type: PROBABLE: 30 percent likelihood of the following during this time
Visibility: 0.93 miles (1.50 km)
Ceiling: 200 feet AGL
Clouds: broken clouds at 200 feet AGL
Weather: BCFG  (patches of fog)